createdAt,value
2023-01-17T00:00:01.359Z,2.35
2023-01-17T00:02:31.797Z,0.47
2023-01-17T00:05:14.206Z,0.80
2023-01-17T00:07:56.815Z,1.98
2023-01-17T00:10:28.314Z,1.52
2023-01-17T00:15:32.990Z,0.70
2023-01-17T00:18:03.367Z,0.50
2023-01-17T00:20:47.408Z,1.50
2023-01-17T00:23:31.393Z,1.30
2023-01-17T00:26:07.672Z,1.10
2023-01-17T00:28:39.376Z,1.58
2023-01-17T00:31:07.926Z,0.20
2023-01-17T00:33:35.475Z,0.85
2023-01-17T00:36:03.905Z,0.22
2023-01-17T00:38:32.972Z,2.53
2023-01-17T00:41:03.457Z,1.45
2023-01-17T00:43:46.336Z,1.63
2023-01-17T00:46:31.446Z,1.55
2023-01-17T00:49:14.058Z,1.20
2023-01-17T00:51:56.775Z,0.65
2023-01-17T00:54:39.234Z,1.90
2023-01-17T00:57:22.372Z,0.52
2023-01-17T01:00:04.910Z,1.67
2023-01-17T01:02:50.736Z,0.38
2023-01-17T01:05:33.579Z,1.05
2023-01-17T01:08:16.848Z,0.30
2023-01-17T01:10:59.924Z,2.33
2023-01-17T01:13:44.096Z,0.30
2023-01-17T01:16:27.202Z,1.33
2023-01-17T01:19:12.519Z,1.20
2023-01-17T01:21:55.052Z,0.25
2023-01-17T01:24:37.525Z,1.08
2023-01-17T01:27:20.124Z,0.20
2023-01-17T01:30:02.608Z,1.90
2023-01-17T01:32:47.302Z,1.08
2023-01-17T01:37:49.812Z,1.60
2023-01-17T01:40:20.941Z,0.85
2023-01-17T01:42:54.717Z,1.02
2023-01-17T01:45:27.014Z,0.28
2023-01-17T01:48:00.803Z,0.65
2023-01-17T01:50:37.332Z,0.20
2023-01-17T01:53:09.113Z,1.55
2023-01-17T01:55:42.701Z,0.30
2023-01-17T01:58:19.219Z,0.38
2023-01-17T02:00:49.388Z,0.20
2023-01-17T02:03:23.273Z,0.68
2023-01-17T02:05:56.284Z,0.63
2023-01-17T02:08:27.263Z,1.20
2023-01-17T02:10:58.982Z,0.52
2023-01-17T02:13:29.292Z,1.48
2023-01-17T02:16:05.841Z,1.08
2023-01-17T02:18:48.705Z,0.32
2023-01-17T02:21:26.443Z,1.77
2023-01-17T02:24:26.943Z,0.10
2023-01-17T02:27:04.754Z,1.42
2023-01-17T02:30:07.662Z,1.38
2023-01-17T02:33:03.647Z,1.08
2023-01-17T02:35:41.055Z,0.68
2023-01-17T02:38:19.553Z,0.20
2023-01-17T02:40:54.718Z,1.25
2023-01-17T02:43:26.950Z,0.40
2023-01-17T02:45:56.959Z,0.40
2023-01-17T02:48:32.309Z,0.35
2023-01-17T02:51:28.037Z,0.50
2023-01-17T02:54:11.258Z,0.10
2023-01-17T02:56:52.399Z,0.40
2023-01-17T02:59:40.878Z,0.28
2023-01-17T03:02:19.691Z,0.30
2023-01-17T03:04:58.035Z,0.60
2023-01-17T03:07:30.859Z,0.30
2023-01-17T03:10:03.728Z,0.22
2023-01-17T03:12:35.976Z,0.25
2023-01-17T03:15:06.646Z,0.52
2023-01-17T03:17:36.693Z,1.77
2023-01-17T03:20:10.130Z,0.40
2023-01-17T03:22:40.124Z,0.13
2023-01-17T03:25:11.086Z,0.28
2023-01-17T03:27:41.140Z,0.68
2023-01-17T03:30:12.824Z,0.20
2023-01-17T03:32:43.219Z,0.20
2023-01-17T03:35:15.962Z,0.30
2023-01-17T03:37:45.971Z,0.50
2023-01-17T03:40:16.167Z,1.27
2023-01-17T03:42:46.329Z,0.20
2023-01-17T03:45:16.909Z,0.30
2023-01-17T03:47:47.190Z,0.47
2023-01-17T03:50:20.033Z,0.30
2023-01-17T03:52:50.651Z,0.20
2023-01-17T03:55:20.871Z,0.35
2023-01-17T03:57:51.088Z,0.35
2023-01-17T04:00:21.858Z,0.20
2023-01-17T04:02:51.919Z,0.40
2023-01-17T04:05:24.556Z,0.30
2023-01-17T04:07:54.788Z,0.32
2023-01-17T04:10:24.843Z,0.30
2023-01-17T04:12:54.861Z,0.40
2023-01-17T04:15:24.929Z,0.35
2023-01-17T04:17:55.205Z,0.30
2023-01-17T04:20:34.842Z,0.50
2023-01-17T04:23:04.968Z,0.22
2023-01-17T04:25:36.580Z,0.40
2023-01-17T04:30:37.081Z,0.15
2023-01-17T04:33:07.549Z,0.90
2023-01-17T04:35:40.416Z,0.20
2023-01-17T04:38:10.754Z,0.22
2023-01-17T04:40:40.860Z,0.50
2023-01-17T04:43:10.976Z,0.30
2023-01-17T04:45:41.657Z,0.45
2023-01-17T04:48:12.840Z,0.60
2023-01-17T04:50:45.536Z,0.30
2023-01-17T04:53:17.130Z,0.40
2023-01-17T04:55:49.366Z,0.90
2023-01-17T04:58:19.377Z,0.35
2023-01-17T05:00:51.271Z,0.30
2023-01-17T05:03:21.744Z,0.32
2023-01-17T05:05:54.482Z,0.45
2023-01-17T05:08:24.525Z,1.77
2023-01-17T05:10:54.628Z,0.20
2023-01-17T05:13:24.654Z,0.20
2023-01-17T05:15:54.803Z,1.10
2023-01-17T05:18:25.127Z,0.40
2023-01-17T05:20:57.788Z,0.20
2023-01-17T05:23:27.795Z,0.40
2023-01-17T05:25:57.827Z,0.28
2023-01-17T05:28:28.115Z,0.30
2023-01-17T05:30:58.391Z,0.40
2023-01-17T05:33:28.620Z,0.47
2023-01-17T05:36:01.374Z,0.25
2023-01-17T05:38:31.391Z,0.30
2023-01-17T05:41:03.058Z,0.40
2023-01-17T05:46:03.099Z,0.40
2023-01-17T05:48:33.163Z,0.40
2023-01-17T05:51:05.905Z,0.50
2023-01-17T05:53:36.868Z,0.25
2023-01-17T05:56:07.266Z,0.57
2023-01-17T05:58:37.474Z,0.30
2023-01-17T06:01:07.585Z,0.43
2023-01-17T06:03:38.379Z,0.35
2023-01-17T06:06:11.155Z,0.80
2023-01-17T06:08:41.270Z,0.30
2023-01-17T06:11:11.370Z,0.30
2023-01-17T06:13:41.590Z,0.30
2023-01-17T06:16:12.123Z,0.30
2023-01-17T06:18:42.188Z,0.55
2023-01-17T06:21:14.884Z,0.43
2023-01-17T06:23:44.876Z,0.50
2023-01-17T06:26:15.289Z,0.50
2023-01-17T06:28:45.301Z,0.50
2023-01-17T06:31:15.497Z,0.17
2023-01-17T06:33:45.710Z,0.30
2023-01-17T06:36:18.380Z,0.43
2023-01-17T06:38:52.367Z,0.80
2023-01-17T06:41:23.369Z,0.40
2023-01-17T06:43:55.229Z,0.30
2023-01-17T06:46:26.190Z,0.30
2023-01-17T06:48:56.463Z,0.40
2023-01-17T06:51:29.156Z,0.30
2023-01-17T06:53:59.347Z,0.30
2023-01-17T06:56:29.588Z,0.25
2023-01-17T06:58:59.825Z,0.30
2023-01-17T07:01:30.251Z,0.35
2023-01-17T07:04:00.382Z,0.50
2023-01-17T07:06:33.114Z,0.35
2023-01-17T07:09:04.232Z,0.20
2023-01-17T07:11:34.601Z,1.23
2023-01-17T07:14:04.820Z,0.40
2023-01-17T07:16:34.932Z,1.23
2023-01-17T07:19:05.224Z,1.15
2023-01-17T07:21:37.856Z,0.30
2023-01-17T07:24:09.126Z,0.22
2023-01-17T07:26:40.373Z,0.52
2023-01-17T07:29:10.751Z,0.32
2023-01-17T07:31:41.076Z,0.63
2023-01-17T07:34:11.285Z,0.30
2023-01-17T07:36:43.956Z,0.40
2023-01-17T07:39:14.124Z,0.20
2023-01-17T07:41:44.342Z,0.22
2023-01-17T07:44:14.733Z,0.30
2023-01-17T07:46:44.907Z,0.45
2023-01-17T07:49:15.306Z,0.45
2023-01-17T07:51:49.743Z,0.35
2023-01-17T07:54:20.003Z,0.50
2023-01-17T07:56:50.047Z,0.30
2023-01-17T07:59:20.555Z,0.80
2023-01-17T08:01:50.755Z,0.40
2023-01-17T08:04:21.017Z,0.55
2023-01-17T08:06:55.127Z,0.20
2023-01-17T08:09:25.488Z,0.40
2023-01-17T08:11:55.547Z,17.13
2023-01-17T08:14:25.724Z,0.50
2023-01-17T08:16:56.281Z,24.45
2023-01-17T08:19:26.389Z,0.30
2023-01-17T08:21:59.508Z,1.90
2023-01-17T08:24:29.624Z,1.85
2023-01-17T08:26:59.880Z,2.17
2023-01-17T08:29:30.082Z,0.73
2023-01-17T08:32:03.415Z,1.98
2023-01-17T08:34:36.217Z,2.00
2023-01-17T08:37:09.173Z,0.57
2023-01-17T08:39:39.468Z,1.55
2023-01-17T08:42:09.710Z,1.45
2023-01-17T08:44:40.183Z,2.17
2023-01-17T08:47:11.821Z,2.28
2023-01-17T08:49:41.889Z,1.85
2023-01-17T08:52:15.667Z,0.28
2023-01-17T08:54:45.744Z,0.52
2023-01-17T08:57:15.849Z,1.92
2023-01-17T08:59:45.956Z,0.22
2023-01-17T09:02:17.793Z,1.02
2023-01-17T09:04:48.063Z,0.35
2023-01-17T09:07:23.016Z,2.60
2023-01-17T09:09:53.057Z,0.28
2023-01-17T09:12:23.876Z,0.17
2023-01-17T09:14:53.917Z,1.45
2023-01-17T09:17:23.968Z,3.08
2023-01-17T09:19:54.726Z,1.45
2023-01-17T09:22:27.355Z,1.20
2023-01-17T09:24:57.634Z,1.65
2023-01-17T09:27:28.148Z,2.45
2023-01-17T09:29:58.134Z,2.35
2023-01-17T09:32:28.187Z,1.00
2023-01-17T09:35:00.871Z,2.22
2023-01-17T09:37:33.735Z,1.30
2023-01-17T09:40:03.844Z,1.10
2023-01-17T09:42:38.864Z,4.20
2023-01-17T09:45:19.221Z,1.40
2023-01-17T09:47:51.406Z,1.02
2023-01-17T09:50:32.607Z,1.80
2023-01-17T09:53:07.442Z,0.20
2023-01-17T09:55:42.874Z,1.55
2023-01-17T09:58:15.921Z,0.20
2023-01-17T10:00:59.852Z,0.50
2023-01-17T10:03:41.865Z,2.83
2023-01-17T10:06:33.709Z,0.93
2023-01-17T10:09:26.172Z,6.00
2023-01-17T10:12:14.357Z,0.47
2023-01-17T10:15:12.336Z,1.17
2023-01-17T10:17:51.990Z,0.52
2023-01-17T10:20:45.826Z,0.30
2023-01-17T10:23:51.843Z,2.38
2023-01-17T10:26:27.266Z,0.40
2023-01-17T10:29:03.105Z,0.38
2023-01-17T10:31:38.668Z,0.82
2023-01-17T10:34:16.089Z,0.70
2023-01-17T10:36:49.645Z,1.23
2023-01-17T10:39:24.033Z,1.55
2023-01-17T10:42:00.854Z,0.40
2023-01-17T10:44:37.960Z,1.77
2023-01-17T10:47:17.679Z,1.25
2023-01-17T10:49:52.107Z,0.95
2023-01-17T10:52:33.878Z,1.05
2023-01-17T10:55:23.878Z,0.40
2023-01-17T10:57:58.044Z,1.42
2023-01-17T11:00:46.516Z,1.15
2023-01-17T11:03:19.695Z,1.38
2023-01-17T11:06:22.640Z,0.65
2023-01-17T11:08:55.171Z,1.33
2023-01-17T11:11:30.269Z,0.77
2023-01-17T11:14:02.594Z,1.52
2023-01-17T11:16:34.126Z,1.10
2023-01-17T11:19:20.316Z,0.28
2023-01-17T11:22:01.743Z,1.85
2023-01-17T11:24:37.793Z,0.88
2023-01-17T11:27:09.584Z,0.47
2023-01-17T11:29:41.027Z,0.40
2023-01-17T11:35:20.138Z,1.15
2023-01-17T11:38:02.402Z,1.42
2023-01-17T11:40:34.424Z,2.25
2023-01-17T11:43:21.572Z,1.98
2023-01-17T11:46:08.599Z,1.65
2023-01-17T11:48:40.677Z,1.30
2023-01-17T11:51:27.777Z,1.23
2023-01-17T11:54:11.418Z,1.50
2023-01-17T11:56:44.326Z,1.52
2023-01-17T11:59:31.635Z,1.38
2023-01-17T12:02:24.163Z,1.33
2023-01-17T12:05:02.717Z,0.32
2023-01-17T12:07:38.105Z,1.70
2023-01-17T12:10:17.630Z,0.98
2023-01-17T12:13:11.508Z,0.20
2023-01-17T12:15:54.925Z,1.30
2023-01-17T12:18:43.225Z,2.50
2023-01-17T12:21:20.764Z,1.30
2023-01-17T12:24:09.522Z,1.98
2023-01-17T12:26:49.995Z,0.40
2023-01-17T12:29:42.392Z,0.52
2023-01-17T12:32:43.234Z,1.60
2023-01-17T12:35:18.112Z,0.60
2023-01-17T12:38:04.223Z,0.20
2023-01-17T12:40:39.774Z,1.77
2023-01-17T12:43:18.371Z,1.10
2023-01-17T12:45:50.404Z,2.78
2023-01-17T12:48:22.335Z,0.43
2023-01-17T12:50:57.402Z,0.10
2023-01-17T12:53:34.557Z,1.23
2023-01-17T12:56:11.940Z,0.80
2023-01-17T12:58:47.976Z,2.42
2023-01-17T13:01:26.572Z,1.40
2023-01-17T13:04:06.185Z,0.13
2023-01-17T13:06:50.983Z,1.05
2023-01-17T13:09:24.823Z,2.33
2023-01-17T13:11:59.002Z,1.85
2023-01-17T13:14:32.895Z,1.35
2023-01-17T13:17:07.219Z,0.60
2023-01-17T13:19:45.715Z,0.65
2023-01-17T13:22:21.805Z,0.40
2023-01-17T13:25:01.747Z,0.40
2023-01-17T13:27:48.257Z,0.38
2023-01-17T13:30:46.996Z,0.55
2023-01-17T13:33:39.167Z,1.20
2023-01-17T13:36:30.005Z,0.77
2023-01-17T13:39:19.909Z,0.30
2023-01-17T13:41:55.913Z,0.30
2023-01-17T13:44:32.063Z,0.30
2023-01-17T13:47:08.259Z,0.20
2023-01-17T13:49:48.564Z,2.15
2023-01-17T13:52:38.371Z,1.38
2023-01-17T13:55:09.651Z,1.50
2023-01-17T13:57:43.966Z,0.50
2023-01-17T14:00:44.109Z,0.40
2023-01-17T14:03:17.094Z,0.30
2023-01-17T14:05:50.961Z,0.63
2023-01-17T14:08:23.192Z,0.10
2023-01-17T14:10:55.095Z,0.28
2023-01-17T14:13:36.624Z,0.32
2023-01-17T14:16:29.069Z,0.45
2023-01-17T14:19:02.041Z,0.45
2023-01-17T14:21:35.667Z,0.52
2023-01-17T14:24:08.399Z,1.40
2023-01-17T14:26:48.245Z,1.55
2023-01-17T14:29:52.392Z,1.15
2023-01-17T14:32:24.961Z,1.35
2023-01-17T14:34:58.101Z,0.60
2023-01-17T14:37:36.406Z,1.60
2023-01-17T14:40:22.115Z,8.85
2023-01-17T14:43:03.327Z,4.22
2023-01-17T14:45:35.480Z,8.07
2023-01-17T14:48:07.897Z,18.27
2023-01-17T14:50:46.174Z,7.72
2023-01-17T14:53:26.104Z,3.58
2023-01-17T14:55:59.352Z,7.53
2023-01-17T14:58:31.651Z,6.90
2023-01-17T15:01:04.473Z,4.95
2023-01-17T15:03:38.584Z,5.85
2023-01-17T15:06:15.137Z,4.15
2023-01-17T15:08:45.441Z,6.15
2023-01-17T15:11:31.761Z,4.32
2023-01-17T15:14:11.767Z,4.85
2023-01-17T15:16:42.044Z,3.42
2023-01-17T15:19:17.285Z,1.92
2023-01-17T15:21:52.324Z,4.45
2023-01-17T15:24:24.652Z,15.68
2023-01-17T15:26:55.451Z,4.65
2023-01-17T15:29:28.511Z,4.13
2023-01-17T15:32:01.066Z,4.05
2023-01-17T15:34:33.098Z,3.75
2023-01-17T15:37:08.196Z,2.78
2023-01-17T15:39:41.185Z,3.50
2023-01-17T15:42:25.887Z,2.60
2023-01-17T15:47:32.004Z,5.60
2023-01-17T15:50:03.447Z,7.35
2023-01-17T15:55:15.811Z,4.75
2023-01-17T15:57:49.673Z,5.93
2023-01-17T16:00:26.888Z,5.82
2023-01-17T16:02:59.087Z,4.00
2023-01-17T16:05:47.412Z,6.07
2023-01-17T16:08:41.869Z,6.13
2023-01-17T16:11:15.925Z,5.05
2023-01-17T16:13:47.509Z,5.03
2023-01-17T16:18:50.176Z,6.10
2023-01-17T16:21:26.241Z,4.45
2023-01-17T16:23:59.266Z,5.50
2023-01-17T16:26:29.559Z,7.57
2023-01-17T16:28:59.928Z,6.38
2023-01-17T16:31:30.028Z,5.65
2023-01-17T16:34:00.113Z,4.70
2023-01-17T16:36:30.177Z,4.93
2023-01-17T16:39:03.044Z,3.15
2023-01-17T16:41:33.143Z,5.03
2023-01-17T16:44:06.381Z,5.30
2023-01-17T16:46:38.703Z,5.88
2023-01-17T16:49:08.821Z,5.45
2023-01-17T16:51:38.841Z,5.40
2023-01-17T16:54:11.499Z,8.00
2023-01-17T16:56:41.596Z,12.35
2023-01-17T16:59:11.858Z,5.88
2023-01-17T17:01:42.001Z,5.95
2023-01-17T17:04:14.421Z,8.05
2023-01-17T17:06:44.519Z,6.60
2023-01-17T17:09:18.677Z,9.00
2023-01-17T17:11:48.722Z,6.88
2023-01-17T17:14:19.004Z,8.13
2023-01-17T17:16:51.831Z,5.60
2023-01-17T17:19:23.166Z,8.07
2023-01-17T17:21:53.243Z,7.82
2023-01-17T17:24:25.954Z,6.10
2023-01-17T17:26:56.087Z,6.93
2023-01-17T17:29:26.137Z,7.43
2023-01-17T17:31:56.571Z,9.85
2023-01-17T17:34:27.816Z,5.80
2023-01-17T17:36:57.882Z,6.38
2023-01-17T17:39:30.583Z,6.22
2023-01-17T17:42:01.053Z,7.53
2023-01-17T17:44:31.140Z,5.05
2023-01-17T17:47:01.395Z,5.20
2023-01-17T17:49:31.665Z,4.90
2023-01-17T17:52:06.549Z,4.32
2023-01-17T17:54:39.536Z,6.22
2023-01-17T17:57:09.618Z,6.55
2023-01-17T17:59:39.709Z,4.57
2023-01-17T18:02:11.266Z,3.90
2023-01-17T18:07:11.359Z,4.63
2023-01-17T18:09:44.088Z,5.35
2023-01-17T18:12:14.181Z,6.63
2023-01-17T18:14:44.381Z,11.65
2023-01-17T18:17:15.304Z,11.85
2023-01-17T18:19:46.320Z,13.13
2023-01-17T18:22:16.427Z,14.40
2023-01-17T18:24:49.108Z,11.75
2023-01-17T18:27:19.166Z,8.13
2023-01-17T18:29:49.452Z,10.20
2023-01-17T18:32:19.713Z,8.35
2023-01-17T18:34:51.584Z,7.97
2023-01-17T18:37:23.255Z,8.77
2023-01-17T18:42:27.582Z,14.75
2023-01-17T18:44:57.661Z,11.02
2023-01-17T18:47:27.760Z,8.18
2023-01-17T18:49:58.090Z,11.88
2023-01-17T18:52:28.338Z,8.73
2023-01-17T18:55:01.146Z,9.52
2023-01-17T18:57:31.173Z,11.90
2023-01-17T19:00:02.417Z,10.30
2023-01-17T19:02:32.435Z,9.55
2023-01-17T19:05:05.701Z,10.85
2023-01-17T19:07:36.078Z,11.82
2023-01-17T19:10:09.899Z,9.88
2023-01-17T19:12:39.945Z,14.43
2023-01-17T19:15:11.554Z,15.32
2023-01-17T19:17:41.597Z,15.93
2023-01-17T19:20:13.646Z,16.88
2023-01-17T19:22:43.694Z,16.60
2023-01-17T19:25:16.728Z,17.10
2023-01-17T19:27:46.811Z,19.90
2023-01-17T19:30:17.339Z,17.40
2023-01-17T19:32:47.607Z,19.50
2023-01-17T19:35:17.857Z,22.45
2023-01-17T19:37:49.055Z,20.88
2023-01-17T19:40:23.145Z,21.95
2023-01-17T19:42:53.156Z,20.80
2023-01-17T19:45:23.301Z,20.45
2023-01-17T19:47:53.746Z,23.85
2023-01-17T19:50:24.044Z,19.20
2023-01-17T19:52:54.161Z,21.08
2023-01-17T19:55:26.876Z,22.73
2023-01-17T19:57:57.393Z,21.48
2023-01-17T20:00:30.422Z,23.20
2023-01-17T20:03:00.660Z,26.58
2023-01-17T20:05:32.442Z,22.55
2023-01-17T20:10:35.225Z,23.45
2023-01-17T20:13:05.306Z,24.08
2023-01-17T20:15:36.927Z,21.80
2023-01-17T20:18:07.282Z,26.88
2023-01-17T20:20:46.107Z,25.95
2023-01-17T20:23:26.213Z,28.83
2023-01-17T20:26:00.653Z,28.98
2023-01-17T20:28:31.922Z,29.20
2023-01-17T20:31:07.970Z,24.90
2023-01-17T20:33:38.232Z,23.20
2023-01-17T20:36:11.415Z,23.25
2023-01-17T20:38:48.810Z,18.45
2023-01-17T20:41:23.195Z,18.83
2023-01-17T20:43:55.234Z,18.23
2023-01-17T20:46:27.488Z,20.83
2023-01-17T20:49:00.608Z,20.35
2023-01-17T20:51:34.528Z,23.10
2023-01-17T20:54:05.488Z,19.30
2023-01-17T20:56:38.589Z,18.33
2023-01-17T20:59:09.700Z,20.98
2023-01-17T21:01:40.352Z,18.50
2023-01-17T21:04:13.099Z,18.65
2023-01-17T21:06:44.897Z,16.38
2023-01-17T21:09:17.348Z,14.68
2023-01-17T21:11:50.730Z,16.63
2023-01-17T21:14:21.827Z,18.33
2023-01-17T21:16:53.080Z,19.25
2023-01-17T21:19:23.939Z,17.95
2023-01-17T21:21:54.032Z,20.60
2023-01-17T21:24:24.272Z,19.60
2023-01-17T21:26:57.343Z,19.00
2023-01-17T21:29:29.235Z,20.60
2023-01-17T21:31:59.495Z,23.55
2023-01-17T21:34:32.166Z,24.40
2023-01-17T21:37:02.444Z,21.35
2023-01-17T21:39:32.689Z,21.42
2023-01-17T21:42:05.319Z,21.80
2023-01-17T21:44:36.392Z,21.75
2023-01-17T21:47:06.938Z,22.95
2023-01-17T21:49:36.931Z,26.23
2023-01-17T21:52:19.810Z,21.83
2023-01-17T21:55:02.237Z,25.60
2023-01-17T21:57:47.286Z,21.67
2023-01-17T22:00:20.459Z,21.48
2023-01-17T22:02:51.064Z,24.73
2023-01-17T22:05:21.357Z,22.45
2023-01-17T22:08:03.823Z,21.13
2023-01-17T22:10:44.569Z,21.52
2023-01-17T22:13:19.439Z,24.35
2023-01-17T22:16:00.092Z,24.13
2023-01-17T22:18:30.765Z,23.30
2023-01-17T22:21:00.968Z,23.20
2023-01-17T22:23:31.352Z,20.40
2023-01-17T22:26:05.176Z,20.55
2023-01-17T22:28:37.902Z,21.17
2023-01-17T22:31:13.675Z,21.35
2023-01-17T22:33:45.561Z,22.92
2023-01-17T22:36:16.938Z,18.38
2023-01-17T22:38:47.277Z,16.38
2023-01-17T22:41:20.180Z,19.83
2023-01-17T22:43:55.598Z,17.40
2023-01-17T22:46:28.720Z,16.95
2023-01-17T22:48:59.737Z,16.50
2023-01-17T22:51:31.202Z,16.17
2023-01-17T22:54:03.035Z,16.25
2023-01-17T22:56:35.037Z,16.05
2023-01-17T22:59:11.491Z,14.98
2023-01-17T23:01:43.303Z,14.55
2023-01-17T23:04:17.350Z,18.80
2023-01-17T23:06:47.599Z,17.48
2023-01-17T23:09:18.661Z,13.93
2023-01-17T23:11:52.090Z,13.63
2023-01-17T23:14:26.942Z,13.32
2023-01-17T23:17:10.826Z,12.13
2023-01-17T23:19:42.712Z,13.15
2023-01-17T23:22:21.705Z,12.55
2023-01-17T23:24:54.003Z,12.55
2023-01-17T23:27:37.585Z,12.73
2023-01-17T23:30:13.909Z,12.13
2023-01-17T23:32:46.653Z,12.48
2023-01-17T23:35:17.704Z,12.43
2023-01-17T23:38:00.328Z,10.88
2023-01-17T23:40:30.783Z,11.40
2023-01-17T23:43:13.258Z,11.30
2023-01-17T23:45:46.146Z,16.25
2023-01-17T23:48:16.763Z,11.93
2023-01-17T23:50:48.369Z,13.38
2023-01-17T23:53:22.560Z,12.00
2023-01-17T23:55:54.602Z,10.88
2023-01-17T23:58:26.229Z,10.32
